Time;durP1;ratioP1;P1;durP2;ratioP2;P2;SDS_P1;SDS_P2;PMS_P1;PMS_P2;Temp;Humidity;BMP_temperature;BMP_pressure;BME280_temperature;BME280_humidity;BME280_pressure;Samples;Min_cycle;Max_cycle;Signal;HPM_P1;HPM_P2
2023/07/29 04:01:22;;;;;;;5.63;5.07;;;17.80;99.90;;;;;;5448316;23;20642;-70
2023/07/29 04:03:49;;;;;;;5.10;4.20;;;17.80;99.90;;;;;;4919183;29;20517;-69
2023/07/29 04:06:16;;;;;;;5.63;4.80;;;17.80;99.90;;;;;;4913211;29;20478;-68
2023/07/29 04:08:43;;;;;;;6.77;6.27;;;17.80;99.90;;;;;;4913700;29;20473;-69
2023/07/29 04:11:09;;;;;;;4.40;4.20;;;17.80;99.90;;;;;;4905102;29;20547;-69
2023/07/29 04:13:37;;;;;;;4.27;3.97;;;17.80;99.90;;;;;;4905360;29;20555;-70
2023/07/29 04:16:04;;;;;;;6.97;5.73;;;17.80;99.90;;;;;;4903656;29;20467;-70
2023/07/29 04:18:32;;;;;;;5.70;5.20;;;17.80;99.90;;;;;;4895048;29;20459;-70
2023/07/29 04:20:59;;;;;;;5.40;5.00;;;17.80;99.90;;;;;;4898015;29;20490;-69
2023/07/29 04:23:25;;;;;;;6.20;5.60;;;17.80;99.90;;;;;;4905665;29;20465;-70
2023/07/29 04:25:52;;;;;;;6.00;5.30;;;17.90;99.90;;;;;;4913277;29;20477;-69
2023/07/29 04:28:19;;;;;;;4.80;4.40;;;17.90;99.90;;;;;;4913291;29;20490;-69
2023/07/29 04:30:46;;;;;;;4.23;3.90;;;18.00;99.90;;;;;;4906082;29;20491;-70
2023/07/29 04:33:12;;;;;;;6.90;4.90;;;18.00;99.90;;;;;;4893959;29;20512;-69
2023/07/29 04:35:40;;;;;;;5.60;5.20;;;18.10;99.90;;;;;;4901088;29;20477;-68
2023/07/29 04:38:07;;;;;;;6.77;5.03;;;18.20;99.90;;;;;;4913316;29;20458;-68
2023/07/29 04:40:34;;;;;;;8.87;8.07;;;18.40;99.90;;;;;;4906640;29;20491;-69
2023/07/29 04:43:01;;;;;;;8.83;7.90;;;18.70;99.90;;;;;;4895873;29;20626;-70
2023/07/29 04:45:29;;;;;;;7.60;6.90;;;18.90;99.90;;;;;;4899796;29;20548;-68
2023/07/29 04:47:55;;;;;;;6.53;5.90;;;19.00;99.90;;;;;;4902650;29;20560;-69
2023/07/29 04:50:22;;;;;;;10.80;5.30;;;19.20;99.90;;;;;;4909349;29;20918;-69
2023/07/29 04:52:50;;;;;;;6.50;6.00;;;19.40;99.90;;;;;;4894738;29;20484;-69
2023/07/29 04:55:17;;;;;;;6.17;5.60;;;19.60;99.90;;;;;;4894472;29;20475;-69
2023/07/29 04:57:43;;;;;;;6.70;6.13;;;19.80;99.90;;;;;;4894794;29;20981;-68
2023/07/29 05:00:11;;;;;;;7.30;6.53;;;20.10;99.90;;;;;;4897895;29;20478;-69
2023/07/29 05:02:38;;;;;;;6.70;6.20;;;20.30;99.90;;;;;;4907799;29;20474;-68
2023/07/29 05:05:05;;;;;;;4.00;3.80;;;20.30;99.90;;;;;;4908097;29;20462;-69
2023/07/29 05:07:32;;;;;;;4.03;3.67;;;20.20;99.90;;;;;;4916697;29;20493;-68
2023/07/29 05:10:00;;;;;;;4.40;4.10;;;20.10;99.90;;;;;;4903265;29;20474;-66
2023/07/29 05:12:29;;;;;;;3.77;3.57;;;20.00;99.90;;;;;;4879430;29;20498;-69
2023/07/29 05:14:55;;;;;;;3.50;3.40;;;19.90;99.90;;;;;;4903744;29;20503;-69
2023/07/29 05:17:22;;;;;;;3.90;3.70;;;19.90;99.90;;;;;;4913819;29;20462;-68
2023/07/29 05:19:49;;;;;;;4.87;4.40;;;19.90;99.90;;;;;;4910951;29;20836;-69
2023/07/29 05:22:16;;;;;;;3.50;3.30;;;19.90;99.90;;;;;;4905250;29;20498;-68
2023/07/29 05:24:42;;;;;;;3.60;3.40;;;19.90;99.90;;;;;;4915061;29;20695;-68
2023/07/29 05:27:10;;;;;;;5.77;5.20;;;19.80;99.90;;;;;;4916468;29;20596;-68
2023/07/29 05:29:37;;;;;;;6.77;3.87;;;19.80;99.90;;;;;;4896841;29;20541;-69
2023/07/29 05:32:04;;;;;;;3.57;3.40;;;19.80;99.90;;;;;;4897437;29;20491;-69
2023/07/29 05:34:31;;;;;;;4.50;4.20;;;19.80;99.90;;;;;;4895380;29;20482;-69
2023/07/29 05:36:58;;;;;;;3.87;3.67;;;19.90;99.90;;;;;;4902365;29;20563;-68
2023/07/29 05:39:25;;;;;;;4.07;3.77;;;19.90;99.90;;;;;;4903114;29;20504;-68
2023/07/29 05:41:51;;;;;;;4.37;4.03;;;19.90;99.90;;;;;;4898831;29;20989;-68
2023/07/29 05:44:19;;;;;;;4.80;4.40;;;19.90;99.90;;;;;;4897027;29;20505;-70
2023/07/29 05:46:47;;;;;;;4.23;3.93;;;20.00;99.90;;;;;;4903860;29;20481;-69
2023/07/29 05:49:14;;;;;;;4.57;4.33;;;20.20;99.90;;;;;;4899657;29;20484;-69
2023/07/29 05:51:40;;;;;;;3.40;3.20;;;20.20;99.90;;;;;;4906452;29;20489;-68
2023/07/29 05:54:07;;;;;;;4.50;4.10;;;20.40;99.90;;;;;;4898232;29;20871;-68
2023/07/29 05:56:34;;;;;;;4.97;4.57;;;20.50;99.90;;;;;;4897222;29;20535;-69
2023/07/29 05:59:00;;;;;;;4.27;3.97;;;20.70;99.90;;;;;;4896938;29;20511;-69
2023/07/29 06:01:28;;;;;;;9.17;4.10;;;20.70;99.90;;;;;;4891618;29;20563;-68
2023/07/29 06:03:55;;;;;;;2.90;2.80;;;20.80;99.90;;;;;;4896126;29;20522;-69
2023/07/29 06:06:23;;;;;;;4.17;3.83;;;20.80;99.90;;;;;;4896150;29;20461;-68
2023/07/29 06:08:50;;;;;;;3.10;2.90;;;20.90;99.90;;;;;;4895529;29;20548;-68
2023/07/29 06:11:17;;;;;;;3.50;3.27;;;21.00;99.90;;;;;;4896459;29;20876;-69
2023/07/29 06:13:44;;;;;;;3.60;3.40;;;21.30;99.90;;;;;;4900521;29;20500;-69
2023/07/29 06:16:10;;;;;;;3.20;3.10;;;21.50;99.90;;;;;;4907992;29;20460;-69
2023/07/29 06:18:38;;;;;;;3.20;3.10;;;21.60;99.90;;;;;;4911425;29;20898;-69
2023/07/29 06:21:07;;;;;;;3.13;3.00;;;21.80;99.90;;;;;;4897052;29;20502;-69
2023/07/29 06:23:34;;;;;;;3.63;3.43;;;21.90;99.90;;;;;;4896571;29;20849;-69
2023/07/29 06:26:01;;;;;;;3.43;3.30;;;22.00;99.90;;;;;;4900093;29;20816;-69
2023/07/29 06:28:27;;;;;;;4.20;3.97;;;22.10;99.90;;;;;;4904005;29;20595;-69
2023/07/29 06:30:54;;;;;;;3.00;2.90;;;22.30;99.90;;;;;;4896274;29;20845;-69
2023/07/29 06:33:21;;;;;;;3.43;3.23;;;22.30;99.90;;;;;;4895135;29;20524;-70
2023/07/29 06:35:49;;;;;;;3.77;3.57;;;22.40;99.90;;;;;;4901019;29;20485;-71
2023/07/29 06:38:19;;;;;;;3.53;3.33;;;22.70;99.90;;;;;;4901907;29;20467;-70
2023/07/29 06:40:45;;;;;;;3.27;3.00;;;23.20;99.90;;;;;;4895508;29;20496;-70
2023/07/29 06:43:12;;;;;;;2.70;2.60;;;23.30;99.90;;;;;;4906502;29;20806;-70
2023/07/29 06:45:39;;;;;;;3.30;3.10;;;23.30;99.90;;;;;;4902614;29;20475;-70
2023/07/29 06:48:06;;;;;;;2.43;2.33;;;23.30;99.90;;;;;;4906272;29;20494;-70
2023/07/29 06:50:32;;;;;;;2.57;2.43;;;23.50;99.90;;;;;;4914021;29;20499;-70
2023/07/29 06:53:00;;;;;;;2.70;2.60;;;23.60;99.90;;;;;;4911634;29;20483;-71
2023/07/29 06:55:27;;;;;;;3.03;2.93;;;24.10;99.90;;;;;;4903497;29;20822;-73
2023/07/29 06:57:54;;;;;;;2.63;2.53;;;24.40;99.90;;;;;;4904820;29;20965;-71
2023/07/29 07:00:21;;;;;;;2.83;2.73;;;24.40;99.90;;;;;;4902984;29;20468;-70
2023/07/29 07:02:47;;;;;;;1.93;1.90;;;24.50;99.90;;;;;;4892250;29;20966;-71
2023/07/29 07:05:15;;;;;;;3.10;2.90;;;24.80;99.90;;;;;;4896680;29;20547;-71
2023/07/29 07:07:42;;;;;;;2.50;2.30;;;25.30;99.90;;;;;;4894426;29;20484;-71
2023/07/29 07:10:10;;;;;;;2.23;2.20;;;25.60;99.90;;;;;;4904284;29;20478;-72
2023/07/29 07:12:37;;;;;;;1.70;1.67;;;25.90;99.90;;;;;;4913076;29;20471;-70
2023/07/29 07:15:04;;;;;;;1.77;1.77;;;25.90;99.90;;;;;;4913868;29;20584;-71
2023/07/29 07:17:31;;;;;;;1.80;1.80;;;25.90;99.90;;;;;;4914597;29;20870;-69
2023/07/29 07:19:57;;;;;;;1.23;1.23;;;26.00;99.90;;;;;;4907069;29;20482;-71
2023/07/29 07:22:24;;;;;;;1.10;1.10;;;26.20;99.90;;;;;;4895203;29;20499;-71
2023/07/29 07:24:51;;;;;;;1.77;1.77;;;26.00;99.90;;;;;;4893893;29;21503;-69
2023/07/29 07:27:19;;;;;;;1.37;1.37;;;25.70;99.90;;;;;;4902206;29;22150;-72
2023/07/29 07:29:46;;;;;;;1.60;1.60;;;25.30;99.90;;;;;;4905516;29;20539;-72
2023/07/29 07:32:13;;;;;;;1.57;1.50;;;25.00;99.90;;;;;;4895707;29;20487;-72
2023/07/29 07:34:39;;;;;;;1.00;1.00;;;24.70;99.90;;;;;;4889606;29;20484;-70
2023/07/29 07:37:06;;;;;;;1.80;1.80;;;24.60;99.90;;;;;;4901432;29;20475;-71
2023/07/29 07:39:33;;;;;;;1.40;1.40;;;24.30;99.90;;;;;;4910134;29;21234;-71
2023/07/29 07:42:00;;;;;;;1.60;1.60;;;24.10;99.90;;;;;;4913824;29;20864;-70
2023/07/29 07:44:28;;;;;;;1.17;1.17;;;24.00;99.90;;;;;;4913702;29;20473;-71
2023/07/29 07:46:54;;;;;;;1.33;1.33;;;23.90;99.90;;;;;;4914107;29;20547;-71
2023/07/29 07:49:21;;;;;;;1.30;1.30;;;23.70;99.90;;;;;;4910789;29;20489;-71
2023/07/29 07:51:48;;;;;;;1.70;1.70;;;23.50;99.90;;;;;;4903024;29;20488;-70
2023/07/29 07:54:14;;;;;;;1.57;1.57;;;23.40;99.90;;;;;;4907427;29;20535;-71
2023/07/29 07:56:41;;;;;;;1.40;1.40;;;23.20;99.90;;;;;;4905154;29;20470;-72
2023/07/29 07:59:08;;;;;;;1.47;1.47;;;23.20;99.90;;;;;;4913715;29;20559;-68
2023/07/29 08:01:37;;;;;;;1.90;1.80;;;23.20;99.90;;;;;;4906998;29;20554;-71
2023/07/29 08:04:04;;;;;;;1.20;1.20;;;23.20;99.90;;;;;;4901089;29;20471;-71
2023/07/29 08:06:31;;;;;;;1.50;1.50;;;23.30;99.90;;;;;;4906163;29;20541;-70
2023/07/29 08:08:57;;;;;;;1.10;1.10;;;23.40;99.90;;;;;;4906697;29;20520;-71
2023/07/29 08:11:24;;;;;;;1.60;1.60;;;23.40;99.90;;;;;;4894656;29;20504;-70
2023/07/29 08:13:51;;;;;;;1.30;1.30;;;23.30;99.90;;;;;;4892800;29;20484;-71
2023/07/29 08:16:18;;;;;;;1.77;1.53;;;23.20;99.90;;;;;;4887750;29;20966;-70
2023/07/29 08:18:47;;;;;;;1.30;1.30;;;23.20;99.90;;;;;;4902110;29;20806;-71
2023/07/29 08:21:13;;;;;;;1.70;1.70;;;23.20;99.90;;;;;;4896807;29;20483;-71
2023/07/29 08:23:40;;;;;;;1.70;1.70;;;23.20;99.90;;;;;;4894183;29;21002;-71
2023/07/29 08:26:07;;;;;;;2.00;2.00;;;23.30;99.90;;;;;;4891325;29;20478;-70
2023/07/29 08:28:35;;;;;;;1.63;1.63;;;23.30;99.90;;;;;;4905608;29;20517;-71
2023/07/29 08:31:03;;;;;;;1.90;1.90;;;23.10;99.90;;;;;;4893655;29;20495;-71
2023/07/29 08:33:30;;;;;;;2.23;2.23;;;23.10;99.90;;;;;;4904308;29;20503;-71
2023/07/29 08:35:58;;;;;;;2.00;2.00;;;23.10;99.90;;;;;;4894997;29;20485;-71
2023/07/29 08:38:26;;;;;;;2.27;2.17;;;22.90;99.90;;;;;;4907592;29;20469;-71
2023/07/29 08:41:05;;;;;;;1.97;1.87;;;22.80;99.90;;;;;;4917363;29;20576;-70
2023/07/29 08:43:34;;;;;;;1.43;1.43;;;22.60;99.90;;;;;;4898217;29;20478;-71
2023/07/29 08:46:00;;;;;;;2.20;2.10;;;22.50;99.90;;;;;;4900917;29;20474;-71
2023/07/29 08:48:34;;;;;;;2.90;2.70;;;22.40;99.90;;;;;;4900546;29;21015;-71
2023/07/29 08:51:04;;;;;;;2.03;1.97;;;22.30;99.90;;;;;;4902532;29;20488;-71
2023/07/29 08:53:32;;;;;;;5.60;2.83;;;22.30;99.90;;;;;;4898604;29;20524;-71
2023/07/29 08:55:59;;;;;;;3.43;3.13;;;22.30;99.90;;;;;;4905075;29;20476;-70
2023/07/29 08:58:27;;;;;;;2.20;2.10;;;22.30;99.90;;;;;;4901724;29;20472;-71
2023/07/29 09:00:54;;;;;;;2.43;2.23;;;22.20;99.90;;;;;;4900880;29;20496;-70
2023/07/29 09:03:21;;;;;;;2.77;2.67;;;22.10;99.90;;;;;;4897679;29;20932;-72
2023/07/29 09:05:48;;;;;;;2.83;2.63;;;22.10;99.90;;;;;;4903813;29;20472;-69
2023/07/29 09:08:17;;;;;;;3.07;2.93;;;22.00;99.90;;;;;;4908785;29;20483;-71
2023/07/29 09:10:43;;;;;;;2.33;2.27;;;21.80;99.90;;;;;;4908070;29;20503;-71
2023/07/29 09:13:10;;;;;;;3.50;3.20;;;21.50;99.90;;;;;;4907066;29;20549;-71
2023/07/29 09:15:38;;;;;;;3.80;3.50;;;21.20;99.90;;;;;;4904252;29;20477;-70
2023/07/29 09:18:11;;;;;;;4.17;3.83;;;21.00;99.90;;;;;;4899771;29;20470;-70
2023/07/29 09:20:39;;;;;;;5.90;5.07;;;20.90;99.90;;;;;;4897522;29;20497;-72
2023/07/29 09:23:09;;;;;;;3.80;3.50;;;20.80;99.90;;;;;;4896873;29;20895;-70
2023/07/29 09:25:38;;;;;;;3.40;3.20;;;20.70;99.90;;;;;;4896469;29;20469;-72
2023/07/29 09:28:10;;;;;;;5.97;3.70;;;20.60;99.90;;;;;;4896746;29;20975;-71
2023/07/29 09:30:37;;;;;;;3.20;3.03;;;20.50;99.90;;;;;;4897754;29;20579;-72
2023/07/29 09:33:03;;;;;;;4.00;3.70;;;20.20;99.90;;;;;;4896640;29;20530;-69
2023/07/29 09:35:33;;;;;;;2.40;2.30;;;20.10;99.90;;;;;;4897124;29;20473;-72
2023/07/29 09:38:00;;;;;;;1.37;1.37;;;20.00;99.90;;;;;;4896186;29;21176;-70
2023/07/29 09:40:27;;;;;;;1.57;1.57;;;19.90;99.90;;;;;;4905507;29;20785;-72
2023/07/29 09:42:56;;;;;;;2.40;2.30;;;19.90;99.90;;;;;;4896649;29;21069;-71
2023/07/29 09:45:23;;;;;;;1.30;1.30;;;19.80;99.90;;;;;;4901713;29;20843;-70
2023/07/29 09:47:50;;;;;;;1.20;1.10;;;19.80;99.90;;;;;;4914617;29;20471;-71
2023/07/29 09:50:17;;;;;;;2.67;1.83;;;19.80;99.90;;;;;;4896969;29;20994;-70
2023/07/29 09:52:44;;;;;;;1.80;1.70;;;19.70;99.90;;;;;;4904725;29;20471;-71
2023/07/29 09:55:12;;;;;;;1.57;1.57;;;19.80;99.90;;;;;;4904065;29;20476;-69
2023/07/29 09:57:40;;;;;;;2.33;2.30;;;19.80;99.90;;;;;;4912305;29;20492;-70
2023/07/29 10:00:11;;;;;;;2.37;2.20;;;19.90;99.90;;;;;;4898418;29;20465;-73
2023/07/29 10:02:39;;;;;;;3.27;2.97;;;20.00;99.90;;;;;;4897148;29;20831;-72
2023/07/29 10:05:08;;;;;;;3.73;2.93;;;20.10;99.90;;;;;;4893693;29;20473;-71
2023/07/29 10:07:37;;;;;;;2.90;2.73;;;20.20;99.90;;;;;;4902341;29;20547;-72
2023/07/29 10:10:05;;;;;;;4.47;4.00;;;20.30;99.90;;;;;;4903957;29;20840;-70
2023/07/29 10:12:33;;;;;;;11.10;4.73;;;20.30;99.90;;;;;;4893770;29;20496;-71
2023/07/29 10:15:01;;;;;;;8.30;5.23;;;20.40;99.90;;;;;;4896248;29;20473;-70
2023/07/29 10:17:30;;;;;;;4.87;4.47;;;20.40;99.90;;;;;;4902015;29;20517;-70
2023/07/29 10:19:58;;;;;;;5.23;4.83;;;20.40;99.90;;;;;;4903505;29;20950;-71
2023/07/29 10:22:28;;;;;;;5.53;5.13;;;20.50;99.90;;;;;;4904425;29;20520;-71
2023/07/29 10:25:02;;;;;;;5.60;4.90;;;20.60;99.90;;;;;;4895861;29;20475;-71
2023/07/29 10:27:30;;;;;;;11.63;6.10;;;20.70;99.90;;;;;;4904915;29;20485;-71
2023/07/29 10:29:57;;;;;;;5.27;4.77;;;20.80;99.90;;;;;;4896896;29;20521;-71
2023/07/29 10:32:27;;;;;;;5.83;5.33;;;21.00;99.90;;;;;;4896480;29;20855;-70
2023/07/29 10:34:55;;;;;;;4.97;4.63;;;21.10;99.90;;;;;;4893431;29;21018;-69
2023/07/29 10:37:24;;;;;;;6.80;5.00;;;21.30;99.90;;;;;;4894100;29;20468;-70
2023/07/29 10:39:55;;;;;;;5.67;5.20;;;21.40;99.90;;;;;;4898631;29;20468;-70
2023/07/29 10:42:22;;;;;;;5.53;5.03;;;21.50;99.90;;;;;;4900738;29;20487;-71
2023/07/29 10:44:52;;;;;;;5.80;5.23;;;21.80;99.90;;;;;;4896636;29;20472;-70
2023/07/29 10:47:22;;;;;;;6.23;5.60;;;21.90;99.90;;;;;;4896602;29;20470;-71
2023/07/29 10:49:52;;;;;;;5.67;5.10;;;22.00;99.90;;;;;;4895000;29;20509;-70
2023/07/29 10:52:32;;;;;;;5.27;4.87;;;22.20;99.90;;;;;;4904420;29;20518;-70
2023/07/29 10:54:59;;;;;;;4.53;4.20;;;22.10;99.90;;;;;;4896251;29;20537;-70
2023/07/29 10:57:33;;;;;;;5.00;4.57;;;22.10;99.90;;;;;;4899648;29;20476;-71
2023/07/29 11:00:01;;;;;;;5.27;4.80;;;22.20;99.90;;;;;;4898041;29;20832;-70
2023/07/29 11:02:32;;;;;;;6.03;5.43;;;22.20;99.90;;;;;;4896234;29;20501;-70
2023/07/29 11:05:00;;;;;;;5.00;4.70;;;22.10;99.90;;;;;;4903772;29;20570;-68
2023/07/29 11:07:28;;;;;;;5.20;4.80;;;22.10;99.90;;;;;;4896481;29;20591;-70
2023/07/29 11:09:58;;;;;;;4.73;4.50;;;22.10;99.90;;;;;;4896035;29;20504;-70
2023/07/29 11:12:36;;;;;;;5.10;4.70;;;22.10;99.90;;;;;;4895918;29;20496;-70
2023/07/29 11:15:05;;;;;;;5.70;5.20;;;22.30;99.90;;;;;;4893689;29;20473;-70
2023/07/29 11:17:34;;;;;;;4.50;4.30;;;22.50;99.90;;;;;;4903152;29;20472;-69
2023/07/29 11:20:02;;;;;;;5.10;4.60;;;22.70;99.90;;;;;;4895262;29;20557;-71
2023/07/29 11:22:29;;;;;;;4.47;4.07;;;22.80;99.90;;;;;;4895553;29;20495;-70
2023/07/29 11:24:58;;;;;;;4.83;4.53;;;22.90;99.90;;;;;;4895507;29;20478;-71
2023/07/29 11:27:24;;;;;;;4.77;4.47;;;22.90;99.90;;;;;;4896112;29;20529;-70
2023/07/29 11:29:51;;;;;;;5.00;4.60;;;22.90;99.90;;;;;;4899814;29;20493;-69
2023/07/29 11:32:18;;;;;;;4.20;3.90;;;22.90;99.90;;;;;;4898668;29;20484;-71
2023/07/29 11:34:44;;;;;;;4.87;4.53;;;23.00;99.90;;;;;;4893435;29;20474;-70
2023/07/29 11:37:12;;;;;;;4.20;3.80;;;23.00;99.90;;;;;;4896109;29;20546;-69
2023/07/29 11:39:44;;;;;;;4.50;4.20;;;23.00;99.90;;;;;;4898028;29;20482;-68
2023/07/29 11:42:15;;;;;;;4.90;4.53;;;23.20;99.90;;;;;;4897485;29;20495;-70
2023/07/29 11:44:42;;;;;;;4.87;4.47;;;23.30;99.90;;;;;;4897021;29;20785;-70
2023/07/29 11:47:09;;;;;;;4.00;3.80;;;23.20;99.90;;;;;;4903415;29;20474;-70
2023/07/29 11:49:36;;;;;;;4.50;4.23;;;23.00;99.90;;;;;;4894311;29;20498;-70
2023/07/29 11:52:03;;;;;;;4.83;4.53;;;23.00;99.90;;;;;;4895335;29;20502;-70
2023/07/29 11:54:31;;;;;;;4.53;4.17;;;23.00;99.90;;;;;;4895529;29;20474;-70
2023/07/29 11:56:58;;;;;;;4.53;4.33;;;22.90;99.90;;;;;;4895586;29;20471;-70
2023/07/29 11:59:28;;;;;;;4.40;4.10;;;23.10;99.90;;;;;;4895586;29;20838;-68
2023/07/29 12:01:54;;;;;;;4.53;4.13;;;23.20;99.90;;;;;;4895627;29;20504;-68
2023/07/29 12:04:22;;;;;;;3.53;3.33;;;23.30;99.90;;;;;;4905065;29;20470;-69
2023/07/29 12:06:49;;;;;;;3.40;3.30;;;23.20;99.90;;;;;;4914834;29;20487;-68
2023/07/29 12:09:15;;;;;;;3.20;3.10;;;23.20;99.90;;;;;;4918030;29;20494;-69
2023/07/29 12:11:42;;;;;;;3.40;3.30;;;23.10;99.90;;;;;;4918191;29;20490;-68
2023/07/29 12:14:09;;;;;;;3.30;3.20;;;23.10;99.90;;;;;;4917966;29;20466;-68
2023/07/29 12:16:43;;;;;;;3.50;3.37;;;23.20;99.90;;;;;;4918106;29;20466;-68
2023/07/29 12:19:12;;;;;;;3.17;3.07;;;23.30;99.90;;;;;;4901486;29;20476;-68
2023/07/29 12:21:39;;;;;;;2.70;2.70;;;23.50;99.90;;;;;;4905219;29;20483;-68
2023/07/29 12:24:06;;;;;;;3.27;3.17;;;23.50;99.90;;;;;;4899030;29;20471;-68
2023/07/29 12:26:33;;;;;;;3.27;2.97;;;23.50;99.90;;;;;;4899018;29;20471;-68
2023/07/29 12:28:59;;;;;;;1.87;1.87;;;23.50;99.90;;;;;;4898813;29;20841;-68
2023/07/29 12:31:32;;;;;;;2.60;2.53;;;23.40;99.90;;;;;;4895687;29;21099;-68
2023/07/29 12:34:00;;;;;;;2.83;2.73;;;23.40;99.90;;;;;;4895011;29;20565;-69
2023/07/29 12:36:41;;;;;;;3.07;2.87;;;23.40;99.90;;;;;;4905329;29;20820;-69
2023/07/29 12:39:16;;;;;;;2.63;2.53;;;23.60;99.90;;;;;;4898991;29;20474;-68
2023/07/29 12:41:42;;;;;;;1.87;1.87;;;23.70;99.90;;;;;;4898813;29;20531;-68
2023/07/29 12:44:09;;;;;;;1.73;1.73;;;23.70;99.90;;;;;;4898166;29;20468;-68
2023/07/29 12:46:36;;;;;;;2.77;2.67;;;23.80;99.90;;;;;;4899047;29;20475;-69
2023/07/29 12:49:04;;;;;;;1.97;1.90;;;24.00;99.90;;;;;;4898046;29;20518;-69
2023/07/29 12:51:31;;;;;;;2.00;2.00;;;24.10;99.90;;;;;;4899717;29;20512;-70
2023/07/29 12:53:58;;;;;;;1.90;1.90;;;24.00;99.90;;;;;;4899801;29;20502;-69
2023/07/29 12:56:24;;;;;;;2.60;2.00;;;23.90;99.90;;;;;;4903018;29;20477;-69
2023/07/29 12:58:51;;;;;;;1.57;1.57;;;23.80;99.90;;;;;;4898175;29;21158;-69
2023/07/29 13:01:18;;;;;;;1.87;1.87;;;23.80;99.90;;;;;;4898147;29;20501;-70
2023/07/29 13:03:45;;;;;;;1.33;1.33;;;23.90;99.90;;;;;;4898036;29;20479;-71
2023/07/29 13:06:13;;;;;;;1.40;1.40;;;23.90;99.90;;;;;;4896314;29;20989;-70
2023/07/29 13:08:40;;;;;;;2.20;2.20;;;24.00;99.90;;;;;;4901925;29;20483;-70
2023/07/29 13:11:06;;;;;;;1.53;1.53;;;24.00;99.90;;;;;;4915696;29;20557;-71
2023/07/29 13:13:33;;;;;;;1.60;1.60;;;24.10;99.90;;;;;;4917180;29;20533;-70
2023/07/29 13:16:00;;;;;;;2.10;2.10;;;24.20;99.90;;;;;;4916993;29;20910;-70
2023/07/29 13:18:26;;;;;;;1.90;1.90;;;24.30;99.90;;;;;;4915886;29;20466;-71
2023/07/29 13:20:53;;;;;;;2.10;1.90;;;24.30;99.90;;;;;;4916541;29;20483;-70
2023/07/29 13:23:21;;;;;;;1.53;1.53;;;24.40;99.90;;;;;;4907462;29;20501;-69
2023/07/29 13:25:48;;;;;;;1.60;1.60;;;24.30;99.90;;;;;;4897816;29;20475;-71
2023/07/29 13:28:15;;;;;;;1.20;1.20;;;24.40;99.90;;;;;;4895082;29;20474;-71
2023/07/29 13:30:42;;;;;;;1.37;1.37;;;24.40;99.90;;;;;;4902349;29;20486;-72
2023/07/29 13:33:09;;;;;;;1.30;1.30;;;24.30;99.90;;;;;;4900519;29;20480;-71
2023/07/29 13:35:35;;;;;;;1.40;1.40;;;24.30;99.90;;;;;;4902960;29;20478;-71
2023/07/29 13:38:03;;;;;;;1.97;1.97;;;24.30;99.90;;;;;;4899526;29;20468;-68
2023/07/29 13:40:32;;;;;;;1.50;1.50;;;24.20;99.90;;;;;;4897750;29;20580;-71
2023/07/29 13:42:59;;;;;;;1.27;1.27;;;24.10;99.90;;;;;;4896473;29;20472;-71
2023/07/29 13:45:25;;;;;;;1.40;1.40;;;24.20;99.90;;;;;;4905406;29;20466;-70
2023/07/29 13:47:52;;;;;;;1.17;1.17;;;24.30;99.90;;;;;;4906852;29;20601;-70
2023/07/29 13:50:19;;;;;;;1.20;1.20;;;24.40;99.90;;;;;;4900414;29;20501;-70
2023/07/29 13:52:46;;;;;;;1.23;1.23;;;24.50;99.90;;;;;;4896942;29;20471;-71
2023/07/29 13:55:13;;;;;;;1.70;1.67;;;24.50;99.90;;;;;;4896244;29;20467;-69
2023/07/29 13:57:41;;;;;;;1.43;1.17;;;24.50;99.90;;;;;;4896373;29;20468;-70
2023/07/29 14:00:08;;;;;;;0.80;0.80;;;24.60;99.90;;;;;;4896547;29;20549;-69
2023/07/29 14:02:35;;;;;;;1.07;1.07;;;24.60;99.90;;;;;;4895848;29;20966;-68
2023/07/29 14:05:02;;;;;;;1.27;1.27;;;24.70;99.90;;;;;;4896597;29;20469;-69
2023/07/29 14:07:28;;;;;;;1.20;1.20;;;24.60;99.90;;;;;;4895103;29;20475;-68
2023/07/29 14:09:55;;;;;;;1.10;1.10;;;24.40;99.90;;;;;;4904133;29;20491;-69
2023/07/29 14:12:22;;;;;;;1.40;1.40;;;24.50;99.90;;;;;;4902543;29;20897;-68
2023/07/29 14:14:50;;;;;;;1.00;1.00;;;24.50;99.90;;;;;;4903126;29;20813;-69
2023/07/29 14:17:16;;;;;;;1.43;1.43;;;24.60;99.90;;;;;;4906164;29;20468;-69
2023/07/29 14:19:43;;;;;;;1.47;1.47;;;24.70;99.90;;;;;;4901336;29;20484;-68
2023/07/29 14:22:10;;;;;;;1.40;1.40;;;24.80;99.90;;;;;;4904542;29;21010;-71
2023/07/29 14:24:37;;;;;;;1.20;1.20;;;24.80;99.90;;;;;;4895857;29;20467;-70
2023/07/29 14:27:04;;;;;;;1.50;1.50;;;25.00;99.90;;;;;;4896399;29;20572;-70
2023/07/29 14:29:30;;;;;;;1.10;1.10;;;25.10;99.90;;;;;;4899993;29;20468;-70
2023/07/29 14:31:58;;;;;;;2.73;1.00;;;25.10;99.90;;;;;;4910830;29;20494;-70
2023/07/29 14:34:25;;;;;;;1.37;1.37;;;25.00;99.90;;;;;;4892727;29;20475;-70
2023/07/29 14:36:52;;;;;;;1.30;1.30;;;25.10;99.90;;;;;;4901576;29;20463;-69
2023/07/29 14:39:18;;;;;;;1.03;1.03;;;25.00;99.90;;;;;;4896945;29;20471;-69
2023/07/29 14:41:45;;;;;;;1.50;1.50;;;24.90;99.90;;;;;;4897506;29;20601;-70
2023/07/29 14:44:12;;;;;;;1.03;1.03;;;25.00;99.90;;;;;;4904010;29;20460;-69
2023/07/29 14:46:38;;;;;;;1.13;1.13;;;25.00;99.90;;;;;;4897035;29;20476;-70
2023/07/29 14:49:06;;;;;;;1.73;1.50;;;25.00;99.90;;;;;;4895881;29;20478;-69
2023/07/29 14:51:33;;;;;;;1.30;1.30;;;25.00;99.90;;;;;;4895266;29;20959;-70
2023/07/29 14:54:00;;;;;;;0.90;0.90;;;25.00;99.90;;;;;;4907904;29;20485;-69
2023/07/29 14:56:27;;;;;;;1.00;1.00;;;25.10;99.90;;;;;;4908362;29;20483;-69
2023/07/29 14:58:53;;;;;;;0.93;0.93;;;25.10;99.90;;;;;;4906965;29;20465;-69
2023/07/29 15:01:20;;;;;;;0.97;0.97;;;25.00;99.90;;;;;;4914642;29;20581;-69
2023/07/29 15:03:47;;;;;;;1.23;1.03;;;25.10;99.90;;;;;;4897346;29;20472;-69
2023/07/29 15:06:15;;;;;;;1.17;0.97;;;25.20;99.90;;;;;;4900426;29;20473;-69
2023/07/29 15:08:41;;;;;;;1.40;0.77;;;25.20;99.90;;;;;;4895671;29;20481;-69
2023/07/29 15:11:08;;;;;;;0.73;0.73;;;25.40;99.90;;;;;;4903389;29;20491;-68
2023/07/29 15:13:35;;;;;;;0.83;0.83;;;25.40;99.90;;;;;;4895383;29;20464;-69
2023/07/29 15:16:01;;;;;;;0.70;0.70;;;25.40;99.90;;;;;;4895341;29;20543;-68
2023/07/29 15:18:29;;;;;;;0.80;0.80;;;25.40;99.90;;;;;;4899149;29;20471;-69
2023/07/29 15:20:56;;;;;;;0.50;0.50;;;25.40;99.90;;;;;;4896580;29;20504;-69
2023/07/29 15:23:24;;;;;;;1.17;1.10;;;25.50;99.90;;;;;;4896315;29;20475;-69
2023/07/29 15:25:51;;;;;;;0.80;0.80;;;25.60;99.90;;;;;;4903303;29;20471;-69
2023/07/29 15:28:18;;;;;;;0.93;0.93;;;25.60;99.90;;;;;;4895688;29;20519;-69
2023/07/29 15:30:44;;;;;;;0.73;0.73;;;25.50;99.90;;;;;;4895386;29;20498;-69
2023/07/29 15:33:11;;;;;;;0.80;0.73;;;25.60;99.90;;;;;;4902431;29;20573;-69
2023/07/29 15:35:39;;;;;;;0.80;0.80;;;25.60;99.90;;;;;;4906375;29;20469;-69
2023/07/29 15:38:05;;;;;;;0.80;0.80;;;25.60;99.90;;;;;;4892427;29;20478;-68
2023/07/29 15:40:34;;;;;;;0.70;0.70;;;25.60;99.90;;;;;;4904355;29;20474;-69
2023/07/29 15:43:00;;;;;;;0.70;0.70;;;25.60;99.90;;;;;;4900483;29;20849;-70
2023/07/29 15:45:27;;;;;;;0.70;0.70;;;25.60;99.90;;;;;;4909900;29;20490;-69
2023/07/29 15:47:54;;;;;;;0.80;0.80;;;25.60;99.90;;;;;;4893613;29;20479;-68
2023/07/29 15:50:20;;;;;;;0.70;0.70;;;25.60;99.90;;;;;;4909227;29;21001;-69
2023/07/29 15:52:47;;;;;;;0.77;0.77;;;25.50;99.90;;;;;;4894483;29;20580;-68
2023/07/29 15:55:14;;;;;;;1.07;1.07;;;25.60;99.90;;;;;;4903575;29;20466;-69
2023/07/29 15:57:42;;;;;;;1.03;1.03;;;25.60;99.90;;;;;;4896247;29;20462;-68
2023/07/29 16:00:10;;;;;;;0.80;0.80;;;25.60;99.90;;;;;;4898531;29;20474;-69
2023/07/29 16:02:37;;;;;;;0.97;0.73;;;25.70;99.90;;;;;;4895800;29;21013;-69
2023/07/29 16:05:05;;;;;;;0.60;0.60;;;25.60;99.90;;;;;;4902064;29;20476;-69
2023/07/29 16:07:32;;;;;;;0.67;0.67;;;25.70;99.90;;;;;;4889161;29;20535;-69
2023/07/29 16:09:59;;;;;;;1.50;0.70;;;25.70;99.90;;;;;;4903136;29;20471;-69
2023/07/29 16:12:26;;;;;;;0.83;0.83;;;25.70;99.90;;;;;;4894466;29;20499;-69
2023/07/29 16:14:54;;;;;;;0.60;0.60;;;25.50;99.90;;;;;;4894443;29;20472;-69
2023/07/29 16:17:20;;;;;;;0.67;0.67;;;25.50;99.90;;;;;;4897088;29;20467;-70
2023/07/29 16:19:55;;;;;;;0.90;0.90;;;25.50;99.90;;;;;;4896079;29;20467;-69
2023/07/29 16:22:22;;;;;;;0.70;0.70;;;25.40;99.90;;;;;;4884430;29;21231;-68
2023/07/29 16:24:49;;;;;;;1.30;1.30;;;25.30;99.90;;;;;;4894149;29;20469;-69
2023/07/29 16:27:16;;;;;;;0.67;0.67;;;25.10;99.90;;;;;;4899996;29;20543;-68
2023/07/29 16:29:43;;;;;;;1.37;1.27;;;24.90;99.90;;;;;;4902744;29;20462;-69
2023/07/29 16:32:11;;;;;;;0.77;0.77;;;24.70;99.90;;;;;;4894457;29;20491;-70
2023/07/29 16:34:38;;;;;;;1.10;1.10;;;24.50;99.90;;;;;;4910788;23;20514;-71
2023/07/29 16:37:06;;;;;;;4.80;0.73;;;24.30;99.90;;;;;;4907227;29;20928;-70
2023/07/29 16:39:33;;;;;;;1.50;1.50;;;24.10;99.90;;;;;;4912277;29;20920;-70
2023/07/29 16:41:59;;;;;;;1.30;0.90;;;24.00;99.90;;;;;;4910710;29;20787;-70
2023/07/29 16:44:26;;;;;;;1.23;1.13;;;23.80;99.90;;;;;;4911048;29;20588;-67
2023/07/29 16:46:53;;;;;;;1.47;1.37;;;23.70;99.90;;;;;;4904146;29;20491;-70